Jacksonville, FL (32216)

6:17 AM EDT on April 02, 2015 (GMT -0400)
Southside | | Change Station
CLOSE
Current Station
Personal Weather Station
Location: Jacksonville, FL
Elevation: 33 ft
Nearby Weather Stations
Active Advisory: Special Statement

Elev 33 ft 30.28 °N, 81.58 °W | Updated 11 seconds ago

Partly Cloudy
Partly Cloudy
58.3 °F
Feels Like 58.3 °F
N
0.0
Wind Variable Wind from WSW
Gusts 0.0 mph

Today
High -- | Low -- °F
--% Chance of Precip.
Yesterday
High -- | Low -- °F
Precip. -- in
7:14 AM 7:45 PM
Waxing Gibbous, 96% visible
Pressure 30.17 in
Visibility 1.0 miles
Clouds
Dew Point 58 °F
Humidity 99%
Rainfall 0.00 in
Snow Depth Not available.
UV 0.0 out of 12
Pollen 9.80 out of 12
Air Quality Not available.
Flu Activity Not available.
SPECI KCRG 021010Z 00000KT 1SM BR VV004 14/13 A3017 RMK AO2 VIS 1/2V5 T01440133

More Conditions Fewer Conditions

Pressure 30.17 in
Visibility 1.0 miles
Clouds
Dew Point 58 °F
Humidity 99%
Rainfall 0.00 in
Snow Depth Not available.
UV 0.0 out of 12
Pollen 9.80 out of 12
Air Quality Not available.
Flu Activity Not available.
SPECI KCRG 021010Z 00000KT 1SM BR VV004 14/13 A3017 RMK AO2 VIS 1/2V5 T01440133

More Conditions Fewer Conditions

10-Day Weather Forecast

Almanac

Astronomy

Apr. 02, 2015 Rise Set
Actual Time
Civil Twilight
Nautical Twilight
Astronomical Twilight
Moon
Length of Visible Light
Length of Day
Tomorrow will be .
, % of the Moon is Illuminated

Today's Extremes

State Highs State Lows

Community

WunderPhotos

Upload Photos

1,810,216 photos uploaded!

WunderBlogs® & News

Nearby

Air Quality

  Air Quality AQ Index Pollutant
Not available.

Snow Depth

Station Depth Elevation

Earthquake Activity

City Distance Mag. Time & Date
Minimum magnitude displayed is 2.5.

Coastal Water Temperatures

Place Temperature

Stations

Nearby Weather Stations

Station Location Temp. Windchill Dew Point Humidity Wind Precip. Elev Updated Type
                   
Special Statement
Statement as of 5:09 AM EDT on April 02, 2015

... Patchy dense fog early this morning...

Areas of fog have formed and patches of dense fog are occurring
near the coast and a few locations further inland. In the locally
dense fog... visibilities of a quarter mile or less are to be
expected. If driving... use caution and be prepared for potential
of rapidly changing visibilities. The fog should lift by 9 to 10
am.